Startpagina
METAR-TAF:

METAR-TAF

Vliegvelden :

Luchthaven Salalah

Salalah, Oman

breedte: 17-02N, lengte: 054-05E, hoogte: 20 m

Actueel weer

Dit bericht is 25 minuten geleden gemaakt, om 17:50 UTC
Wind 3 kt uit het zuidwesten
Temperatuur 25°C
Vochtigheid 83%
Druk 1014 hPa
Zicht 10 km of meer
Verspreide wolken op 2500 ft

METAR: OOSA 191750Z 23003KT 9999 SCT025 25/22 Q1014 NOSIG

Tijdstip: 22:15 (18:15 UTC)

Verwachting

Dit bericht is 1 uur en het 15 minuten geleden gemaakt, om 17:00 UTC
Verwachting geldig van 19 om 18 UTC tot 21 om 00 UTC
Wind 3 kt uit variabele richting
Zicht 10 km of meer
Gebroken wolken op 2500 ft
Wijzigt naar
van 19 om 21 UTC tot 19 om 23 UTC
Verspreide wolken op 2500 ft
Wijzigt naar
van 20 om 07 UTC tot 20 om 09 UTC
Wind 10 kt uit het zuiden
Wijzigt naar
van 20 om 15 UTC tot 20 om 17 UTC
Wind 3 kt uit variabele richting

TAF: OOSA 191700Z 1918/2100 VRB03KT 9999 BKN025 BECMG 1921/1923 SCT025 BECMG 2007/2009 18010KT BECMG 2015/2017 VRB03KT

Waarnemingen en weersverwachtingen van meer dan 4000 vliegvelden (METAR en TAF).

De beschikbare stations zijn de gele en rode punten op de kaart.

Ga met uw muis naar het station om de naam te zien.

Klik dan om waarnemingen en weersverwachtingen te zien.

kaart wijzigen: klik op de groene knoppen met een zwart kruis om in te zoomen, op de groene knop met een streepje om uit te zoomen of op de groene pijlen voor aangrenzende kaarten.


METAR-TAF: